Time;durP1;ratioP1;P1;durP2;ratioP2;P2;SDS_P1;SDS_P2;PMS_P1;PMS_P2;Temp;Humidity;BMP_temperature;BMP_pressure;BME280_temperature;BME280_humidity;BME280_pressure;Samples;Min_cycle;Max_cycle;Signal;HPM_P1;HPM_P2
2023/05/12 00:01:13;;;;;;;3.42;3.00;;;10.20;99.90;;;;;;5074555;28;20189;-68
2023/05/12 00:03:44;;;;;;;3.70;2.53;;;10.20;99.90;;;;;;5075201;28;20279;-68
2023/05/12 00:06:12;;;;;;;3.42;3.10;;;10.20;99.90;;;;;;5074855;28;20194;-68
2023/05/12 00:08:40;;;;;;;4.75;2.20;;;10.10;99.90;;;;;;5075258;28;20244;-68
2023/05/12 00:11:08;;;;;;;3.47;2.70;;;10.10;99.90;;;;;;5074429;28;20648;-68
2023/05/12 00:13:40;;;;;;;3.47;2.63;;;10.10;99.90;;;;;;5075053;28;20212;-67
2023/05/12 00:16:10;;;;;;;4.72;2.80;;;10.00;99.90;;;;;;5074640;28;20185;-68
2023/05/12 00:18:38;;;;;;;5.15;3.00;;;10.00;99.90;;;;;;5054575;28;20225;-68
2023/05/12 00:21:07;;;;;;;4.15;2.90;;;10.00;99.90;;;;;;5055397;28;20221;-68
2023/05/12 00:23:35;;;;;;;4.45;3.13;;;10.10;99.90;;;;;;5073823;28;20268;-68
2023/05/12 00:26:02;;;;;;;4.85;3.50;;;10.00;99.90;;;;;;5074921;28;20200;-67
2023/05/12 00:28:30;;;;;;;5.43;3.33;;;10.00;99.90;;;;;;5074440;28;20200;-67
2023/05/12 00:31:01;;;;;;;4.50;3.35;;;10.00;99.90;;;;;;5074565;28;20200;-67
2023/05/12 00:33:29;;;;;;;7.43;3.08;;;10.00;99.90;;;;;;5074128;28;20190;-68
2023/05/12 00:36:02;;;;;;;5.30;2.90;;;10.00;99.90;;;;;;5074835;28;20247;-68
2023/05/12 00:38:33;;;;;;;4.50;3.08;;;10.00;99.90;;;;;;5073576;28;20671;-68
2023/05/12 00:41:02;;;;;;;5.15;2.92;;;10.00;99.90;;;;;;5074511;28;20200;-68
2023/05/12 00:43:32;;;;;;;4.53;3.08;;;10.00;99.90;;;;;;5073474;28;20305;-68
2023/05/12 00:46:00;;;;;;;3.58;2.53;;;10.00;99.90;;;;;;5074503;28;20278;-68
2023/05/12 00:48:30;;;;;;;3.58;2.92;;;10.00;99.90;;;;;;5074096;28;20190;-68
2023/05/12 00:50:58;;;;;;;3.85;2.75;;;10.00;99.90;;;;;;5074330;28;20201;-68
2023/05/12 00:53:26;;;;;;;4.75;2.63;;;10.00;99.90;;;;;;5073960;28;20194;-68
2023/05/12 00:55:56;;;;;;;4.70;2.97;;;9.90;99.90;;;;;;5074044;28;20270;-68
2023/05/12 00:58:24;;;;;;;5.10;3.45;;;9.90;99.90;;;;;;5073654;28;20193;-68
2023/05/12 01:00:52;;;;;;;3.25;2.30;;;9.90;99.90;;;;;;5074071;28;20194;-68
2023/05/12 01:03:19;;;;;;;4.90;3.42;;;9.80;99.90;;;;;;5073364;28;20213;-68
2023/05/12 01:05:51;;;;;;;3.58;2.75;;;9.70;99.90;;;;;;5073698;28;20551;-68
2023/05/12 01:08:24;;;;;;;4.22;2.90;;;9.70;99.90;;;;;;5073519;28;20214;-68
2023/05/12 01:10:52;;;;;;;4.18;3.40;;;9.80;99.90;;;;;;5073824;28;20552;-68
2023/05/12 01:13:20;;;;;;;6.65;3.55;;;9.70;99.90;;;;;;5073657;28;20268;-68
2023/05/12 01:15:49;;;;;;;4.15;3.42;;;9.70;99.90;;;;;;5073635;28;20695;-68
2023/05/12 01:18:20;;;;;;;4.85;3.45;;;9.70;99.90;;;;;;5072873;28;20222;-67
2023/05/12 01:20:50;;;;;;;4.45;3.58;;;9.70;99.90;;;;;;5073608;28;20232;-67
2023/05/12 01:23:24;;;;;;;10.18;3.63;;;9.60;99.90;;;;;;5073330;28;20214;-68
2023/05/12 01:25:54;;;;;;;4.25;3.20;;;9.60;99.90;;;;;;5073771;28;20635;-68
2023/05/12 01:28:24;;;;;;;5.65;3.35;;;9.50;99.90;;;;;;5073097;28;20181;-68
2023/05/12 01:30:52;;;;;;;5.00;3.67;;;9.40;99.90;;;;;;5073060;28;20546;-68
2023/05/12 01:33:21;;;;;;;9.15;4.18;;;9.40;99.90;;;;;;5073526;28;20552;-68
2023/05/12 01:35:51;;;;;;;4.72;3.70;;;9.40;99.90;;;;;;5072734;28;20182;-68
2023/05/12 01:38:22;;;;;;;5.53;4.05;;;9.30;99.90;;;;;;5073577;28;20698;-67
2023/05/12 01:40:49;;;;;;;5.13;3.88;;;9.30;99.90;;;;;;5073190;28;20186;-67
2023/05/12 01:43:16;;;;;;;6.97;4.88;;;9.20;99.90;;;;;;5073156;28;20599;-68
2023/05/12 01:45:46;;;;;;;5.18;4.00;;;9.20;99.90;;;;;;5072655;28;20675;-67
2023/05/12 01:48:13;;;;;;;5.18;3.60;;;9.10;99.90;;;;;;5073248;28;20198;-68
2023/05/12 01:50:41;;;;;;;5.28;3.67;;;9.10;99.90;;;;;;5072855;28;20218;-67
2023/05/12 01:53:10;;;;;;;4.18;3.28;;;9.10;99.90;;;;;;5073089;28;20660;-67
2023/05/12 01:55:37;;;;;;;5.07;2.55;;;9.00;99.90;;;;;;5072571;28;20785;-68
2023/05/12 01:58:05;;;;;;;3.90;2.72;;;8.90;99.90;;;;;;5072837;28;20667;-68
2023/05/12 02:00:35;;;;;;;4.70;3.00;;;8.90;99.90;;;;;;5072740;28;20189;-68
2023/05/12 02:03:05;;;;;;;5.80;4.68;;;8.90;99.90;;;;;;5072484;28;20218;-68
2023/05/12 02:05:32;;;;;;;4.90;3.95;;;8.80;99.90;;;;;;5052782;28;20191;-68
2023/05/12 02:08:00;;;;;;;6.20;4.18;;;8.80;99.90;;;;;;5052653;28;20225;-68
2023/05/12 02:10:33;;;;;;;5.95;4.30;;;8.70;99.90;;;;;;5072362;28;20272;-68
2023/05/12 02:13:01;;;;;;;6.65;4.30;;;8.70;99.90;;;;;;5073073;28;20284;-68
2023/05/12 02:15:28;;;;;;;5.13;4.35;;;8.60;99.90;;;;;;5072388;28;20648;-67
2023/05/12 02:17:57;;;;;;;6.95;5.25;;;8.60;99.90;;;;;;5072516;28;20189;-68
2023/05/12 02:20:28;;;;;;;5.00;3.90;;;8.50;99.90;;;;;;5072199;28;20292;-68
2023/05/12 02:22:55;;;;;;;5.82;4.05;;;8.50;99.90;;;;;;5072432;28;20189;-68
2023/05/12 02:25:28;;;;;;;8.45;4.38;;;8.40;99.90;;;;;;5072085;28;20193;-68
2023/05/12 02:27:56;;;;;;;5.28;3.85;;;8.40;99.90;;;;;;5072855;28;20197;-67
2023/05/12 02:30:23;;;;;;;5.32;3.92;;;8.40;99.90;;;;;;5071256;28;20239;-68
2023/05/12 02:32:51;;;;;;;5.63;4.00;;;8.40;99.90;;;;;;5071948;28;20235;-68
2023/05/12 02:35:18;;;;;;;7.65;4.57;;;8.40;99.90;;;;;;5072595;28;20185;-68
2023/05/12 02:37:53;;;;;;;6.55;3.42;;;8.30;99.90;;;;;;5072135;28;20276;-68
2023/05/12 02:40:22;;;;;;;4.63;3.28;;;8.30;99.90;;;;;;5072750;28;20196;-67
2023/05/12 02:42:49;;;;;;;6.45;3.65;;;8.20;99.90;;;;;;5072595;28;20250;-68
2023/05/12 02:45:19;;;;;;;4.80;3.50;;;8.20;99.90;;;;;;5074792;28;20182;-67
2023/05/12 02:47:47;;;;;;;4.60;3.60;;;8.20;99.90;;;;;;5079105;28;20200;-67
2023/05/12 02:50:15;;;;;;;7.63;4.22;;;8.20;99.90;;;;;;5078807;28;20304;-68
2023/05/12 02:52:42;;;;;;;10.07;3.88;;;8.20;99.90;;;;;;5079345;28;20272;-68
2023/05/12 02:55:11;;;;;;;6.65;3.30;;;8.20;99.90;;;;;;5078496;28;20178;-67
2023/05/12 02:57:44;;;;;;;6.43;4.13;;;8.20;99.90;;;;;;5079115;28;20193;-68
2023/05/12 03:00:16;;;;;;;6.22;3.65;;;8.10;99.90;;;;;;5079185;28;20193;-68
2023/05/12 03:02:46;;;;;;;5.85;4.65;;;8.10;99.90;;;;;;5079459;28;20193;-68
2023/05/12 03:05:14;;;;;;;6.22;3.88;;;8.10;99.90;;;;;;5078460;28;20245;-68
2023/05/12 03:07:43;;;;;;;9.30;4.85;;;8.10;99.90;;;;;;5078948;28;20192;-68
2023/05/12 03:10:12;;;;;;;7.18;3.95;;;8.10;99.90;;;;;;5078521;28;20278;-68
2023/05/12 03:12:40;;;;;;;4.55;3.55;;;8.10;99.90;;;;;;5079026;28;20207;-67
2023/05/12 03:15:11;;;;;;;5.05;3.70;;;8.00;99.90;;;;;;5078482;28;20185;-68
2023/05/12 03:17:43;;;;;;;5.03;3.65;;;8.10;99.90;;;;;;5078897;28;20247;-68
2023/05/12 03:20:12;;;;;;;5.15;3.78;;;8.10;99.90;;;;;;5078627;28;20628;-68
2023/05/12 03:22:42;;;;;;;8.57;4.00;;;8.00;99.90;;;;;;5078876;28;20185;-68
2023/05/12 03:25:12;;;;;;;4.47;3.58;;;8.10;99.90;;;;;;5078141;28;20286;-67
2023/05/12 03:27:40;;;;;;;7.93;4.10;;;8.00;99.90;;;;;;5078927;28;20636;-67
2023/05/12 03:30:12;;;;;;;5.93;3.92;;;8.00;99.90;;;;;;5078506;28;20675;-68
2023/05/12 03:32:40;;;;;;;5.10;3.88;;;8.00;99.90;;;;;;5078888;28;20204;-68
2023/05/12 03:35:09;;;;;;;5.78;4.60;;;8.00;99.90;;;;;;5078140;28;20232;-68
2023/05/12 03:37:37;;;;;;;5.03;4.13;;;7.90;99.90;;;;;;5078737;28;20245;-67
2023/05/12 03:40:08;;;;;;;5.80;4.00;;;7.90;99.90;;;;;;5078541;28;20300;-67
2023/05/12 03:42:37;;;;;;;5.28;3.60;;;7.80;99.90;;;;;;5078595;28;20648;-68
2023/05/12 03:45:05;;;;;;;5.55;4.03;;;7.80;99.90;;;;;;5078019;28;20574;-67
2023/05/12 03:47:34;;;;;;;5.03;4.53;;;7.80;99.90;;;;;;5078509;28;20185;-68
2023/05/12 03:50:03;;;;;;;4.05;3.13;;;7.90;99.90;;;;;;5077800;28;20182;-68
2023/05/12 03:52:47;;;;;;;4.15;3.28;;;7.90;99.90;;;;;;5078619;28;20257;-67
2023/05/12 03:55:15;;;;;;;5.15;3.40;;;7.90;99.90;;;;;;5078480;28;20186;-68
2023/05/12 03:57:45;;;;;;;3.63;2.55;;;7.90;99.90;;;;;;5076073;28;20197;-68
2023/05/12 04:00:17;;;;;;;4.45;3.45;;;7.90;99.90;;;;;;5074627;28;20216;-68
2023/05/12 04:02:45;;;;;;;4.72;4.05;;;8.00;99.90;;;;;;5075449;28;20225;-68
2023/05/12 04:05:15;;;;;;;3.97;3.10;;;8.00;99.90;;;;;;5074781;28;20214;-68
2023/05/12 04:07:42;;;;;;;3.92;3.15;;;8.10;99.90;;;;;;5075367;28;20225;-67
2023/05/12 04:10:12;;;;;;;4.75;3.63;;;8.10;99.90;;;;;;5074216;28;20590;-68
2023/05/12 04:12:40;;;;;;;4.78;3.20;;;8.10;99.90;;;;;;5075087;28;20189;-68
2023/05/12 04:15:10;;;;;;;4.85;3.17;;;8.20;99.90;;;;;;5075013;28;20190;-68
2023/05/12 04:17:43;;;;;;;4.93;3.35;;;8.20;99.90;;;;;;5074864;28;20265;-68
2023/05/12 04:20:11;;;;;;;4.95;3.50;;;8.30;99.90;;;;;;5074745;28;20614;-68
2023/05/12 04:22:39;;;;;;;5.85;3.45;;;8.30;99.90;;;;;;5074946;28;20194;-67
2023/05/12 04:25:12;;;;;;;4.60;3.05;;;8.40;99.90;;;;;;5074458;28;20225;-68
2023/05/12 04:27:42;;;;;;;4.60;3.00;;;8.40;99.90;;;;;;5074697;28;20260;-67
2023/05/12 04:30:12;;;;;;;4.50;3.70;;;8.50;99.90;;;;;;5074426;28;20567;-68
2023/05/12 04:32:40;;;;;;;4.40;3.40;;;8.60;99.90;;;;;;5074814;28;20194;-68
2023/05/12 04:35:09;;;;;;;6.38;4.05;;;8.60;99.90;;;;;;5074258;28;20266;-68
2023/05/12 04:37:42;;;;;;;4.90;4.18;;;8.70;99.90;;;;;;5054609;28;20281;-68
2023/05/12 04:40:10;;;;;;;14.55;10.00;;;8.70;99.90;;;;;;5055032;28;20285;-68
2023/05/12 04:42:37;;;;;;;8.00;6.38;;;8.80;99.90;;;;;;5074761;28;20267;-68
2023/05/12 04:45:12;;;;;;;9.00;7.05;;;8.80;99.90;;;;;;5074426;28;20312;-68
2023/05/12 04:47:41;;;;;;;9.80;8.10;;;8.80;99.90;;;;;;5073500;28;20356;-68
2023/05/12 04:50:11;;;;;;;7.95;5.85;;;8.90;99.90;;;;;;5074404;28;20189;-68
2023/05/12 04:52:40;;;;;;;7.40;6.60;;;9.00;99.90;;;;;;5054450;28;20565;-68
2023/05/12 04:55:09;;;;;;;7.78;5.38;;;9.00;99.90;;;;;;5055644;28;20277;-68
2023/05/12 04:57:40;;;;;;;5.68;4.50;;;9.00;99.90;;;;;;5054552;28;20604;-68
2023/05/12 05:00:13;;;;;;;5.93;4.32;;;9.00;99.90;;;;;;5054625;28;20197;-68
2023/05/12 05:02:42;;;;;;;4.85;2.97;;;9.10;99.90;;;;;;5074044;28;20559;-67
2023/05/12 05:05:12;;;;;;;3.67;2.67;;;9.20;99.90;;;;;;5073637;28;20221;-68
2023/05/12 05:07:42;;;;;;;4.60;2.45;;;9.10;99.90;;;;;;5073127;28;20182;-67
2023/05/12 05:10:13;;;;;;;3.85;2.97;;;9.20;99.90;;;;;;5073523;28;21061;-67
2023/05/12 05:12:41;;;;;;;3.72;3.10;;;9.20;99.90;;;;;;5073958;28;20254;-67
2023/05/12 05:15:11;;;;;;;4.47;3.17;;;9.30;99.90;;;;;;5073679;28;20177;-68
2023/05/12 05:17:42;;;;;;;5.55;4.50;;;9.40;99.90;;;;;;5073559;28;20280;-68
2023/05/12 05:20:12;;;;;;;6.80;5.40;;;9.50;99.90;;;;;;5072940;28;20225;-67
2023/05/12 05:22:39;;;;;;;6.30;5.53;;;9.50;99.90;;;;;;5073136;28;20630;-68
2023/05/12 05:25:13;;;;;;;7.47;6.57;;;9.40;99.90;;;;;;5072638;28;20699;-68
2023/05/12 05:27:41;;;;;;;6.03;4.38;;;9.40;99.90;;;;;;5073490;28;20193;-68
2023/05/12 05:30:09;;;;;;;4.47;3.67;;;9.50;99.90;;;;;;5073379;28;20243;-68
2023/05/12 05:32:39;;;;;;;5.00;4.50;;;9.50;99.90;;;;;;5073400;28;20196;-68
2023/05/12 05:35:08;;;;;;;5.90;4.68;;;9.70;99.90;;;;;;5073188;28;20283;-68
2023/05/12 05:37:35;;;;;;;6.47;5.30;;;9.80;99.90;;;;;;5073041;28;20272;-68
2023/05/12 05:40:06;;;;;;;5.65;4.43;;;9.90;99.90;;;;;;5073364;28;20197;-68
2023/05/12 05:42:34;;;;;;;8.63;7.20;;;10.00;99.90;;;;;;5073565;28;20334;-68
2023/05/12 05:45:01;;;;;;;5.82;4.15;;;10.10;99.90;;;;;;5069758;28;20220;-69
2023/05/12 05:47:33;;;;;;;5.25;3.92;;;10.20;99.50;;;;;;5079570;28;20242;-68
2023/05/12 05:50:03;;;;;;;4.90;3.88;;;10.30;99.80;;;;;;5072150;28;20182;-67
2023/05/12 05:52:31;;;;;;;3.70;2.90;;;10.20;99.30;;;;;;5070071;28;20186;-68
2023/05/12 05:54:59;;;;;;;3.65;2.67;;;10.20;99.90;;;;;;5072149;28;20198;-68
2023/05/12 05:57:27;;;;;;;4.13;3.40;;;10.20;99.90;;;;;;5072719;28;20201;-68
2023/05/12 05:59:54;;;;;;;5.15;4.65;;;10.30;99.90;;;;;;5072503;28;20186;-68
2023/05/12 06:02:24;;;;;;;3.95;3.42;;;10.40;99.90;;;;;;5072867;28;20197;-68
2023/05/12 06:04:51;;;;;;;5.72;3.63;;;10.50;99.90;;;;;;5069283;28;20307;-68
2023/05/12 06:07:18;;;;;;;3.80;2.78;;;10.60;99.90;;;;;;5072427;28;20193;-68
2023/05/12 06:09:47;;;;;;;3.87;2.47;;;10.70;99.90;;;;;;5089992;28;20192;-68
2023/05/12 06:12:14;;;;;;;5.05;4.55;;;10.90;99.90;;;;;;5074879;28;20934;-68
2023/05/12 06:14:41;;;;;;;4.65;3.30;;;11.00;99.90;;;;;;5071185;28;20192;-68
2023/05/12 06:17:08;;;;;;;4.03;2.83;;;11.20;99.90;;;;;;5072616;28;20648;-68
2023/05/12 06:19:35;;;;;;;3.50;2.80;;;11.40;99.70;;;;;;5070467;28;20260;-68
2023/05/12 06:22:02;;;;;;;6.80;3.03;;;11.60;99.00;;;;;;5072247;28;20217;-68
2023/05/12 06:24:29;;;;;;;3.80;2.80;;;11.80;98.30;;;;;;5076985;28;20259;-68
2023/05/12 06:26:58;;;;;;;5.00;3.27;;;12.00;97.60;;;;;;5070705;28;20802;-68
2023/05/12 06:29:26;;;;;;;3.97;2.77;;;12.20;97.50;;;;;;5067703;28;20555;-68
2023/05/12 06:31:54;;;;;;;4.80;2.80;;;12.40;97.30;;;;;;5078631;28;20444;-68
2023/05/12 06:34:21;;;;;;;5.63;4.53;;;12.60;96.20;;;;;;5089534;28;20775;-68
2023/05/12 06:36:58;;;;;;;4.20;3.00;;;12.80;95.80;;;;;;5076684;28;20874;-68
2023/05/12 06:39:31;;;;;;;5.30;3.00;;;13.00;95.00;;;;;;5070944;28;20447;-68
2023/05/12 06:42:00;;;;;;;3.03;2.43;;;13.10;95.20;;;;;;5071665;28;20468;-68
2023/05/12 06:44:28;;;;;;;3.73;2.57;;;13.40;94.80;;;;;;5071814;28;20471;-68
2023/05/12 06:46:55;;;;;;;3.40;2.50;;;13.50;94.70;;;;;;5071491;28;20828;-69
2023/05/12 06:49:34;;;;;;;3.23;2.40;;;13.70;93.60;;;;;;5080743;28;20454;-68
2023/05/12 06:52:01;;;;;;;3.47;2.80;;;13.90;92.80;;;;;;5073715;28;20440;-68
2023/05/12 06:54:28;;;;;;;2.53;1.67;;;14.10;93.00;;;;;;5072274;28;20444;-68
2023/05/12 06:56:55;;;;;;;3.50;2.50;;;14.30;92.90;;;;;;5072807;28;20482;-68
2023/05/12 06:59:24;;;;;;;4.93;2.20;;;14.50;91.40;;;;;;5072621;28;20439;-69
2023/05/12 07:01:53;;;;;;;3.93;2.20;;;14.60;90.90;;;;;;5072291;28;20938;-68
2023/05/12 07:04:22;;;;;;;3.40;1.93;;;14.70;90.30;;;;;;5072688;28;20475;-68
2023/05/12 07:06:51;;;;;;;3.60;2.07;;;14.90;89.60;;;;;;5072746;28;20436;-68
2023/05/12 07:09:22;;;;;;;3.70;1.67;;;15.10;90.10;;;;;;5072928;28;20784;-68
2023/05/12 07:11:49;;;;;;;2.90;1.87;;;15.30;88.80;;;;;;5072858;28;20485;-68
2023/05/12 07:14:21;;;;;;;3.40;2.40;;;15.50;87.60;;;;;;5072496;28;20436;-69
2023/05/12 07:16:50;;;;;;;2.57;1.70;;;15.80;87.50;;;;;;5072835;28;20462;-68
2023/05/12 07:19:17;;;;;;;3.33;1.63;;;16.00;84.20;;;;;;5072374;28;20470;-69
2023/05/12 07:21:49;;;;;;;2.80;1.60;;;16.20;82.20;;;;;;5072524;28;20432;-68
2023/05/12 07:24:16;;;;;;;2.43;1.33;;;16.30;79.90;;;;;;5072859;28;20436;-69
2023/05/12 07:26:46;;;;;;;2.77;1.50;;;16.60;81.00;;;;;;5072339;28;20815;-68
2023/05/12 07:29:14;;;;;;;1.97;0.93;;;16.90;81.50;;;;;;5072707;28;20474;-68
2023/05/12 07:31:41;;;;;;;3.23;1.30;;;17.10;79.40;;;;;;5074038;28;20436;-69
2023/05/12 07:34:10;;;;;;;2.60;1.70;;;17.40;79.70;;;;;;5076334;28;20490;-68
2023/05/12 07:36:37;;;;;;;2.20;1.10;;;17.60;77.30;;;;;;5076164;28;20480;-68
2023/05/12 07:39:04;;;;;;;2.60;1.47;;;17.70;75.00;;;;;;5075754;28;20851;-68
2023/05/12 07:41:31;;;;;;;2.63;1.23;;;17.70;73.20;;;;;;5076004;28;20539;-68
2023/05/12 07:43:58;;;;;;;6.50;1.50;;;17.70;73.10;;;;;;5076162;28;20431;-68
2023/05/12 07:46:31;;;;;;;4.40;1.53;;;17.70;72.50;;;;;;5076157;28;20483;-68
2023/05/12 07:48:58;;;;;;;2.33;1.43;;;17.80;73.30;;;;;;5076093;28;20467;-68
2023/05/12 07:51:27;;;;;;;2.17;1.23;;;17.90;72.70;;;;;;5075820;28;20475;-68
2023/05/12 07:53:56;;;;;;;2.70;1.80;;;18.10;72.80;;;;;;5076081;28;20443;-68
2023/05/12 07:56:23;;;;;;;2.07;1.10;;;18.20;71.40;;;;;;5075849;28;20769;-69
2023/05/12 07:58:55;;;;;;;2.83;1.27;;;18.30;70.90;;;;;;5075695;28;20490;-68
2023/05/12 08:01:26;;;;;;;2.50;1.20;;;18.40;69.50;;;;;;5075684;28;20505;-68
2023/05/12 08:03:55;;;;;;;2.00;1.03;;;18.50;68.80;;;;;;5075415;28;20497;-68
2023/05/12 08:06:22;;;;;;;2.53;1.00;;;18.60;68.90;;;;;;5075539;28;20511;-69
2023/05/12 08:08:52;;;;;;;2.30;1.30;;;18.70;63.40;;;;;;5075539;28;20435;-68
2023/05/12 08:11:23;;;;;;;2.33;1.43;;;18.60;62.00;;;;;;5075810;28;20440;-68
2023/05/12 08:13:50;;;;;;;2.53;1.60;;;18.50;62.00;;;;;;5075480;28;20475;-69
2023/05/12 08:16:17;;;;;;;2.27;1.27;;;18.40;63.90;;;;;;5075364;28;20491;-69
2023/05/12 08:18:46;;;;;;;2.20;1.20;;;18.30;64.90;;;;;;5075543;28;20472;-68
2023/05/12 08:21:13;;;;;;;2.77;1.60;;;18.20;65.40;;;;;;5075370;28;20506;-69
2023/05/12 08:23:40;;;;;;;2.63;1.43;;;18.00;67.30;;;;;;5075387;28;20476;-68
2023/05/12 08:26:08;;;;;;;3.40;1.50;;;17.90;65.90;;;;;;5075164;28;20519;-68
2023/05/12 08:28:36;;;;;;;6.80;1.87;;;17.80;67.60;;;;;;5075261;28;20436;-68
2023/05/12 08:31:03;;;;;;;2.00;1.20;;;17.70;67.50;;;;;;5076728;28;20460;-68
2023/05/12 08:33:30;;;;;;;2.10;1.00;;;17.90;68.90;;;;;;5074388;28;20526;-68
2023/05/12 08:35:57;;;;;;;2.60;1.40;;;17.90;68.00;;;;;;5077427;28;20526;-68
2023/05/12 08:38:24;;;;;;;2.43;1.47;;;17.80;68.30;;;;;;5078770;28;20490;-68
2023/05/12 08:41:05;;;;;;;3.30;1.80;;;17.90;70.60;;;;;;5074848;28;20505;-68
2023/05/12 08:43:40;;;;;;;3.23;2.00;;;18.10;69.00;;;;;;5072992;28;20482;-68
2023/05/12 08:46:08;;;;;;;4.27;1.87;;;18.20;66.40;;;;;;5073738;28;20487;-68
2023/05/12 08:48:38;;;;;;;2.30;1.37;;;18.40;66.80;;;;;;5073671;28;20922;-68
2023/05/12 08:51:10;;;;;;;2.43;1.53;;;18.70;66.80;;;;;;5072714;28;20535;-68
2023/05/12 08:53:38;;;;;;;2.10;1.13;;;19.20;67.70;;;;;;5073847;28;20459;-69
2023/05/12 08:56:07;;;;;;;1.83;1.00;;;19.80;64.80;;;;;;5077402;28;20918;-69
2023/05/12 08:58:42;;;;;;;2.00;1.27;;;20.30;64.50;;;;;;5073187;28;20451;-69
2023/05/12 09:01:13;;;;;;;2.40;1.13;;;20.70;59.70;;;;;;5072657;28;20527;-68
2023/05/12 09:03:40;;;;;;;2.90;0.93;;;20.80;57.60;;;;;;5073823;28;20490;-69
2023/05/12 09:06:09;;;;;;;1.70;0.77;;;21.00;58.40;;;;;;5077587;28;20841;-69
2023/05/12 09:08:38;;;;;;;1.73;0.80;;;21.20;56.60;;;;;;5073274;28;20443;-68
2023/05/12 09:11:11;;;;;;;2.30;0.90;;;21.30;54.70;;;;;;5073179;28;20440;-69
2023/05/12 09:13:48;;;;;;;2.10;0.97;;;21.40;55.00;;;;;;5073415;28;20440;-68
2023/05/12 09:16:19;;;;;;;3.07;1.00;;;21.60;53.30;;;;;;5078032;28;20439;-68
2023/05/12 09:18:51;;;;;;;1.63;0.70;;;21.60;54.20;;;;;;5072733;28;20561;-69
2023/05/12 09:21:18;;;;;;;2.00;1.00;;;21.90;53.80;;;;;;5072915;28;20451;-69
2023/05/12 09:23:56;;;;;;;3.20;0.90;;;22.00;55.40;;;;;;5073092;28;20478;-69
2023/05/12 09:26:24;;;;;;;1.97;0.90;;;21.90;54.70;;;;;;5069516;28;20515;-68
2023/05/12 09:28:55;;;;;;;5.93;0.90;;;21.70;54.60;;;;;;5069287;28;20432;-69
2023/05/12 09:31:23;;;;;;;1.70;0.80;;;21.50;54.90;;;;;;5069121;28;20444;-69
2023/05/12 09:33:51;;;;;;;2.00;0.83;;;21.40;54.90;;;;;;5072474;28;20432;-68
2023/05/12 09:36:20;;;;;;;2.20;0.80;;;21.40;54.70;;;;;;5072759;28;20527;-68
2023/05/12 09:38:58;;;;;;;3.73;0.83;;;21.30;55.60;;;;;;5075404;28;20779;-69
2023/05/12 09:41:25;;;;;;;2.13;1.00;;;21.20;55.20;;;;;;5068964;28;20455;-69
2023/05/12 09:43:54;;;;;;;2.20;1.13;;;21.00;56.30;;;;;;5072683;28;20448;-69
2023/05/12 09:46:21;;;;;;;2.43;1.30;;;20.70;56.00;;;;;;5072341;28;20511;-69
2023/05/12 09:48:48;;;;;;;1.93;0.80;;;20.50;56.50;;;;;;5072612;28;20444;-69
2023/05/12 09:51:17;;;;;;;1.90;0.90;;;20.20;57.30;;;;;;5076535;28;20485;-69
2023/05/12 09:53:45;;;;;;;2.73;0.90;;;20.00;57.70;;;;;;5072155;28;20509;-69
2023/05/12 09:56:15;;;;;;;1.77;0.93;;;19.90;57.60;;;;;;5071764;28;20958;-69
2023/05/12 09:58:44;;;;;;;1.70;0.73;;;19.90;56.80;;;;;;5075290;28;20525;-69
2023/05/12 10:01:20;;;;;;;2.07;0.70;;;19.70;57.00;;;;;;5072320;28;20444;-68
2023/05/12 10:03:53;;;;;;;2.20;0.80;;;19.60;57.20;;;;;;5075042;28;20720;-68
2023/05/12 10:06:27;;;;;;;2.27;0.80;;;19.30;57.70;;;;;;5073138;28;20997;-68
2023/05/12 10:09:00;;;;;;;1.80;0.70;;;19.10;58.50;;;;;;5072286;28;20440;-68
2023/05/12 10:11:29;;;;;;;1.90;0.73;;;18.90;58.50;;;;;;5069089;28;20474;-68
2023/05/12 10:13:56;;;;;;;5.03;1.00;;;18.70;60.10;;;;;;5072204;28;20478;-68
2023/05/12 10:16:26;;;;;;;2.17;0.90;;;18.50;61.10;;;;;;5072399;28;20494;-68
2023/05/12 10:18:54;;;;;;;2.00;1.00;;;18.40;62.00;;;;;;5071962;28;20476;-68
2023/05/12 10:21:21;;;;;;;1.80;0.60;;;18.30;63.00;;;;;;5071886;28;20906;-68
2023/05/12 10:23:49;;;;;;;1.57;0.57;;;18.10;63.50;;;;;;5071841;28;20476;-68
2023/05/12 10:26:19;;;;;;;1.70;0.50;;;18.00;64.30;;;;;;5080362;28;20518;-69
2023/05/12 10:28:47;;;;;;;1.60;0.70;;;17.90;64.90;;;;;;5085155;28;20470;-68
2023/05/12 10:31:14;;;;;;;1.80;0.80;;;17.80;63.20;;;;;;5084375;28;20507;-69
2023/05/12 10:33:43;;;;;;;1.63;0.50;;;17.70;64.50;;;;;;5083699;28;20863;-68
2023/05/12 10:36:19;;;;;;;1.70;0.60;;;17.70;63.00;;;;;;5086391;28;20478;-68
2023/05/12 10:38:49;;;;;;;4.13;1.00;;;17.60;62.00;;;;;;5079816;28;20495;-68
2023/05/12 10:41:17;;;;;;;2.10;1.10;;;17.60;64.90;;;;;;5082759;28;20444;-68
2023/05/12 10:43:49;;;;;;;2.27;1.07;;;17.50;67.10;;;;;;5075161;28;20903;-69
2023/05/12 10:46:19;;;;;;;2.00;1.00;;;17.60;67.60;;;;;;5076783;28;20487;-68
2023/05/12 10:48:58;;;;;;;2.37;1.00;;;17.60;67.00;;;;;;5085401;28;20439;-68
2023/05/12 10:51:27;;;;;;;2.63;0.80;;;17.70;66.50;;;;;;5076752;28;20585;-68
2023/05/12 10:53:58;;;;;;;2.07;0.90;;;17.80;65.40;;;;;;5076968;28;20589;-70
2023/05/12 10:56:28;;;;;;;1.73;0.80;;;17.80;63.50;;;;;;5087610;28;20914;-68
2023/05/12 10:59:12;;;;;;;2.20;0.87;;;17.80;62.60;;;;;;5083036;28;20538;-69
2023/05/12 11:01:58;;;;;;;1.90;0.87;;;17.90;64.10;;;;;;5071242;28;20502;-69
2023/05/12 11:04:39;;;;;;;3.00;0.73;;;18.00;64.70;;;;;;5075894;28;20450;-69
2023/05/12 11:07:09;;;;;;;2.03;1.00;;;18.20;65.20;;;;;;5082620;28;20483;-68
2023/05/12 11:09:37;;;;;;;1.80;0.60;;;18.30;65.00;;;;;;5074334;28;20490;-68
2023/05/12 11:12:07;;;;;;;2.10;0.70;;;18.50;64.30;;;;;;5080296;28;21123;-69
2023/05/12 11:14:34;;;;;;;1.80;0.70;;;18.70;65.90;;;;;;5089845;28;20445;-68
2023/05/12 11:17:11;;;;;;;1.80;0.80;;;18.90;64.30;;;;;;5089571;28;20913;-69
2023/05/12 11:19:40;;;;;;;1.90;0.90;;;19.20;62.80;;;;;;5083530;28;20555;-68
2023/05/12 11:22:09;;;;;;;1.60;0.60;;;19.40;62.40;;;;;;5080814;28;20447;-68
2023/05/12 11:24:39;;;;;;;1.80;0.70;;;19.60;60.70;;;;;;5083701;28;20452;-68
2023/05/12 11:27:07;;;;;;;1.60;0.60;;;19.80;59.90;;;;;;5087406;28;20506;-68
2023/05/12 11:29:34;;;;;;;2.00;0.67;;;19.90;61.50;;;;;;5080175;28;20439;-69
2023/05/12 11:32:01;;;;;;;1.70;0.63;;;20.00;59.00;;;;;;5077358;28;20442;-69
2023/05/12 11:34:28;;;;;;;4.70;0.67;;;20.10;56.90;;;;;;5076003;28;20831;-69
2023/05/12 11:36:57;;;;;;;1.50;0.50;;;20.00;55.60;;;;;;5086016;28;20531;-69
2023/05/12 11:39:29;;;;;;;2.13;0.70;;;20.00;56.50;;;;;;5080868;28;20956;-69
2023/05/12 11:42:03;;;;;;;2.40;0.70;;;20.10;56.50;;;;;;5077360;28;20444;-69
2023/05/12 11:44:30;;;;;;;1.50;0.60;;;20.10;54.80;;;;;;5083039;28;20854;-69
2023/05/12 11:46:59;;;;;;;1.80;0.80;;;19.90;54.60;;;;;;5084359;28;20566;-69
2023/05/12 11:49:27;;;;;;;2.13;0.60;;;19.90;55.00;;;;;;5081134;28;20504;-69
2023/05/12 11:51:57;;;;;;;1.60;0.50;;;19.90;54.40;;;;;;5069247;28;20521;-69
2023/05/12 11:54:25;;;;;;;1.60;0.60;;;19.90;53.80;;;;;;5077315;28;20499;-69
2023/05/12 11:56:53;;;;;;;1.70;0.60;;;19.90;53.40;;;;;;5083817;28;20431;-69
2023/05/12 11:59:31;;;;;;;1.50;0.50;;;20.00;54.40;;;;;;5073799;28;20479;-69
2023/05/12 12:01:59;;;;;;;1.60;0.60;;;20.20;55.60;;;;;;5074374;28;20432;-68
2023/05/12 12:04:39;;;;;;;1.63;0.60;;;20.30;54.10;;;;;;5079002;28;20806;-69
2023/05/12 12:07:08;;;;;;;1.73;0.67;;;20.30;53.90;;;;;;5084713;28;20501;-68
2023/05/12 12:09:37;;;;;;;1.70;0.60;;;20.30;54.40;;;;;;5090386;28;20431;-69
2023/05/12 12:12:05;;;;;;;1.70;0.70;;;20.30;55.00;;;;;;5086355;28;20475;-68
2023/05/12 12:14:33;;;;;;;2.23;0.60;;;20.30;54.40;;;;;;5079535;28;20842;-69
2023/05/12 12:17:03;;;;;;;1.70;0.60;;;20.40;55.00;;;;;;5077547;28;20447;-69
2023/05/12 12:19:30;;;;;;;2.43;0.50;;;20.50;55.60;;;;;;5077245;28;20460;-68
2023/05/12 12:21:58;;;;;;;3.00;0.70;;;20.70;54.70;;;;;;5080557;28;20475;-69
2023/05/12 12:24:26;;;;;;;1.87;0.57;;;20.80;54.00;;;;;;5074922;28;20476;-69
2023/05/12 12:26:54;;;;;;;1.70;0.50;;;20.80;54.70;;;;;;5075021;28;21001;-69
2023/05/12 12:29:22;;;;;;;1.60;0.50;;;21.00;55.40;;;;;;5075121;28;20435;-69
2023/05/12 12:31:51;;;;;;;1.50;0.50;;;21.10;53.00;;;;;;5074649;28;20980;-69
2023/05/12 12:34:21;;;;;;;1.50;0.50;;;21.20;52.90;;;;;;5073399;28;20505;-69
2023/05/12 12:36:48;;;;;;;2.07;0.50;;;21.30;51.60;;;;;;5075367;28;20448;-69
2023/05/12 12:39:15;;;;;;;2.10;0.80;;;21.30;52.90;;;;;;5075354;28;20956;-69
2023/05/12 12:41:46;;;;;;;1.80;0.53;;;21.50;51.30;;;;;;5074670;28;20498;-68
2023/05/12 12:44:13;;;;;;;1.70;0.70;;;21.50;51.40;;;;;;5075165;28;20447;-68
2023/05/12 12:46:42;;;;;;;1.70;0.60;;;21.70;50.00;;;;;;5074449;28;20552;-69
2023/05/12 12:49:10;;;;;;;1.60;0.50;;;21.70;48.40;;;;;;5074843;28;20436;-68
2023/05/12 12:51:37;;;;;;;1.67;0.60;;;21.70;47.00;;;;;;5074563;28;20459;-68
2023/05/12 12:54:04;;;;;;;2.77;0.53;;;21.80;47.90;;;;;;5071229;28;20432;-69
2023/05/12 12:56:31;;;;;;;1.53;0.50;;;22.00;48.30;;;;;;5074234;28;20487;-68
2023/05/12 12:59:00;;;;;;;1.60;0.53;;;22.30;48.30;;;;;;5074791;28;20515;-69
2023/05/12 13:01:27;;;;;;;1.70;0.60;;;22.50;45.70;;;;;;5074391;28;20471;-69